Time;durP1;ratioP1;P1;durP2;ratioP2;P2;SDS_P1;SDS_P2;PMS_P1;PMS_P2;Temp;Humidity;BMP_temperature;BMP_pressure;BME280_temperature;BME280_humidity;BME280_pressure;Samples;Min_cycle;Max_cycle;Signal;HPM_P1;HPM_P2
2021/01/01 00:01:43;;;;;;;0.20;0.10;;;;;;;3.19;100.00;99058.22;4993682;28;20457;-51
2021/01/01 00:04:09;;;;;;;0.30;0.20;;;;;;;3.13;100.00;99060.94;4995159;28;20449;-50
2021/01/01 00:06:36;;;;;;;0.20;0.10;;;;;;;3.23;100.00;99061.66;4995320;28;20454;-51
2021/01/01 00:09:06;;;;;;;0.20;0.10;;;;;;;3.21;100.00;99068.69;4994869;28;21057;-51
2021/01/01 00:11:34;;;;;;;0.20;0.10;;;;;;;3.28;100.00;99065.91;4994911;28;20450;-51
2021/01/01 00:14:00;;;;;;;0.20;0.10;;;;;;;3.26;100.00;99064.22;4993273;28;20469;-51
2021/01/01 00:16:31;;;;;;;0.87;0.87;;;;;;;3.27;100.00;99068.56;4993161;28;20491;-51
2021/01/01 00:18:57;;;;;;;0.20;0.10;;;;;;;3.19;100.00;99063.47;4989578;28;20486;-50
2021/01/01 00:21:31;;;;;;;0.20;0.10;;;;;;;3.52;100.00;99059.31;4978811;28;20466;-50
2021/01/01 00:23:59;;;;;;;0.20;0.20;;;;;;;3.23;100.00;99070.38;4990322;28;20958;-51
2021/01/01 00:26:26;;;;;;;0.20;0.10;;;;;;;3.18;100.00;99072.25;4988795;28;20513;-50
2021/01/01 00:28:52;;;;;;;0.20;0.10;;;;;;;3.17;100.00;99065.25;4989893;28;20493;-50
2021/01/01 00:31:21;;;;;;;0.20;0.10;;;;;;;3.18;100.00;99066.13;4994501;28;20473;-51
2021/01/01 00:33:49;;;;;;;0.87;0.87;;;;;;;3.19;100.00;99068.72;4968294;28;20452;-51
2021/01/01 00:36:16;;;;;;;0.20;0.10;;;;;;;3.31;100.00;99072.03;4993930;28;20536;-51
2021/01/01 00:38:51;;;;;;;0.30;0.30;;;;;;;3.24;100.00;99072.13;4994228;28;20564;-51
2021/01/01 00:41:23;;;;;;;0.20;0.20;;;;;;;3.37;100.00;99070.13;4994314;28;20459;-50
2021/01/01 00:43:51;;;;;;;0.20;0.10;;;;;;;3.45;100.00;99059.50;4988882;28;20465;-51
2021/01/01 00:46:17;;;;;;;0.20;0.10;;;;;;;3.34;100.00;99064.06;4994268;28;20520;-50
2021/01/01 00:48:44;;;;;;;0.20;0.10;;;;;;;3.25;100.00;99065.97;4993741;28;20497;-51
2021/01/01 00:51:10;;;;;;;0.30;0.30;;;;;;;3.28;100.00;99062.41;4992761;28;20508;-51
2021/01/01 00:53:43;;;;;;;0.20;0.10;;;;;;;3.29;100.00;99064.19;4971709;28;20471;-51
2021/01/01 00:56:09;;;;;;;0.60;0.60;;;;;;;3.19;100.00;99060.84;4994074;28;20520;-50
2021/01/01 00:58:35;;;;;;;0.20;0.10;;;;;;;3.24;100.00;99066.00;4984109;28;20477;-51
2021/01/01 01:01:01;;;;;;;0.20;0.10;;;;;;;3.23;100.00;99067.75;4991101;28;20450;-50
2021/01/01 01:03:27;;;;;;;0.30;0.20;;;;;;;3.25;100.00;99071.22;4986888;28;20462;-51
2021/01/01 01:05:53;;;;;;;0.20;0.10;;;;;;;3.27;100.00;99076.44;4991812;28;20523;-51
2021/01/01 01:08:20;;;;;;;0.20;0.10;;;;;;;3.21;100.00;99074.81;4992223;28;20485;-51
2021/01/01 01:10:46;;;;;;;0.20;0.10;;;;;;;3.33;100.00;99076.34;4992084;28;20477;-50
2021/01/01 01:13:12;;;;;;;0.20;0.10;;;;;;;3.36;100.00;99083.28;4991748;28;20460;-50
2021/01/01 01:15:38;;;;;;;0.20;0.10;;;;;;;3.30;100.00;99076.41;4993691;28;20560;-51
2021/01/01 01:18:04;;;;;;;0.20;0.10;;;;;;;3.27;100.00;99076.44;4993351;28;20453;-50
2021/01/01 01:20:30;;;;;;;0.20;0.13;;;;;;;3.27;100.00;99084.31;4984163;28;20560;-49
2021/01/01 01:22:56;;;;;;;0.20;0.10;;;;;;;3.30;100.00;99081.66;4980898;28;20524;-50
2021/01/01 01:25:22;;;;;;;0.20;0.10;;;;;;;3.34;100.00;99078.06;4990833;28;20870;-50
2021/01/01 01:27:48;;;;;;;0.30;0.10;;;;;;;3.39;100.00;99091.09;4987860;28;20489;-50
2021/01/01 01:30:15;;;;;;;0.20;0.10;;;;;;;3.37;100.00;99090.28;4988672;28;20543;-50
2021/01/01 01:32:41;;;;;;;0.20;0.10;;;;;;;3.39;100.00;99096.34;4992990;28;20947;-50
2021/01/01 01:35:08;;;;;;;0.20;0.10;;;;;;;3.42;100.00;99091.03;4993002;28;20516;-50
2021/01/01 01:37:35;;;;;;;0.20;0.10;;;;;;;3.33;100.00;99088.59;4992844;28;20462;-49
2021/01/01 01:40:01;;;;;;;0.20;0.20;;;;;;;3.33;100.00;99088.59;4990920;28;20874;-49
2021/01/01 01:42:27;;;;;;;0.20;0.10;;;;;;;3.36;100.00;99097.28;4993001;28;20457;-50
2021/01/01 01:44:53;;;;;;;0.20;0.10;;;;;;;3.41;100.00;99094.56;4993110;28;20464;-50
2021/01/01 01:47:19;;;;;;;0.20;0.10;;;;;;;3.35;100.00;99092.06;4992986;28;20582;-50
2021/01/01 01:49:47;;;;;;;0.20;0.10;;;;;;;3.39;100.00;99091.97;4992995;28;20478;-51
2021/01/01 01:52:14;;;;;;;0.20;0.10;;;;;;;3.48;100.00;99090.94;4990941;28;20461;-50
2021/01/01 01:54:41;;;;;;;0.20;0.10;;;;;;;3.42;100.00;99094.53;4991587;28;20461;-50
2021/01/01 01:57:08;;;;;;;0.20;0.10;;;;;;;3.46;100.00;99100.63;4990434;28;20457;-49
2021/01/01 01:59:35;;;;;;;0.30;0.23;;;;;;;3.44;100.00;99107.66;4992507;28;20478;-50
2021/01/01 02:02:01;;;;;;;0.20;0.10;;;;;;;3.42;100.00;99101.53;4993079;28;20449;-50
2021/01/01 02:04:27;;;;;;;0.20;0.10;;;;;;;3.41;100.00;99110.31;4993035;28;20472;-50
2021/01/01 02:06:54;;;;;;;0.20;0.10;;;;;;;3.48;100.00;99107.56;4991198;28;20470;-50
2021/01/01 02:09:20;;;;;;;0.20;0.10;;;;;;;3.45;100.00;99118.13;4992895;28;20478;-50
2021/01/01 02:11:49;;;;;;;0.20;0.10;;;;;;;3.42;100.00;99110.28;4993073;28;20457;-50
2021/01/01 02:14:16;;;;;;;0.20;0.10;;;;;;;3.40;100.00;99111.22;4991018;28;20469;-49
2021/01/01 02:16:45;;;;;;;0.20;0.20;;;;;;;3.38;100.00;99110.38;4992729;28;20864;-50
2021/01/01 02:19:13;;;;;;;0.20;0.10;;;;;;;3.41;100.00;99115.56;4992523;28;20477;-50
2021/01/01 02:21:42;;;;;;;0.20;0.10;;;;;;;3.40;100.00;99126.97;4974899;28;20467;-50
2021/01/01 02:24:10;;;;;;;0.20;0.10;;;;;;;3.46;100.00;99129.50;4988282;28;20929;-50
2021/01/01 02:26:37;;;;;;;0.20;0.10;;;;;;;3.33;100.00;99120.13;4985842;28;20450;-49
2021/01/01 02:29:03;;;;;;;0.20;0.10;;;;;;;3.43;100.00;99132.19;4992312;28;20496;-49
2021/01/01 02:31:30;;;;;;;0.20;0.10;;;;;;;3.47;100.00;99139.97;4992793;28;20450;-50
2021/01/01 02:33:57;;;;;;;0.20;0.10;;;;;;;3.42;100.00;99135.69;4992795;28;20453;-50
2021/01/01 02:36:23;;;;;;;0.20;0.10;;;;;;;3.41;100.00;99133.97;4991426;28;20488;-50
2021/01/01 02:38:49;;;;;;;0.20;0.10;;;;;;;3.47;100.00;99132.09;4995888;28;20504;-50
2021/01/01 02:41:16;;;;;;;0.20;0.10;;;;;;;3.51;100.00;99143.41;4996130;28;20532;-50
2021/01/01 02:43:42;;;;;;;0.20;0.10;;;;;;;3.38;100.00;99136.66;4994601;28;20465;-49
2021/01/01 02:46:08;;;;;;;0.20;0.10;;;;;;;3.38;100.00;99134.88;4995638;28;20453;-50
2021/01/01 02:48:34;;;;;;;0.20;0.10;;;;;;;3.44;100.00;99136.56;4995928;28;20917;-50
2021/01/01 02:51:00;;;;;;;0.20;0.10;;;;;;;3.43;100.00;99140.94;4988331;28;20476;-50
2021/01/01 02:53:28;;;;;;;0.20;0.10;;;;;;;3.42;100.00;99135.69;4993614;28;20939;-50
2021/01/01 02:55:54;;;;;;;0.20;0.10;;;;;;;3.40;100.00;99137.47;4995675;28;20453;-50
2021/01/01 02:58:20;;;;;;;0.20;0.10;;;;;;;3.39;100.00;99141.88;4991299;28;20807;-50
2021/01/01 03:00:48;;;;;;;0.20;0.10;;;;;;;3.43;100.00;99140.06;4996015;28;20453;-49
2021/01/01 03:03:16;;;;;;;0.20;0.10;;;;;;;3.48;100.00;99140.84;4996222;28;20456;-50
2021/01/01 03:05:42;;;;;;;0.20;0.10;;;;;;;3.50;100.00;99136.41;4994034;28;20469;-49
2021/01/01 03:08:08;;;;;;;0.20;0.10;;;;;;;3.41;100.00;99140.06;4995769;28;20485;-50
2021/01/01 03:10:34;;;;;;;0.20;0.20;;;;;;;3.43;100.00;99145.31;4979909;28;20478;-50
2021/01/01 03:13:00;;;;;;;1.10;1.10;;;;;;;3.36;100.00;99139.31;4984410;28;20469;-50
2021/01/01 03:15:27;;;;;;;0.20;0.10;;;;;;;3.51;100.00;99143.41;4995547;28;20861;-50
2021/01/01 03:17:53;;;;;;;1.33;1.23;;;;;;;3.53;100.00;99145.09;4993549;28;20902;-50
2021/01/01 03:20:19;;;;;;;0.40;0.40;;;;;;;3.34;100.00;99142.84;4988718;28;20970;-50
2021/01/01 03:22:45;;;;;;;0.20;0.10;;;;;;;3.30;100.00;99154.31;4980806;28;20458;-50
2021/01/01 03:25:12;;;;;;;0.20;0.10;;;;;;;3.37;100.00;99155.94;4991850;28;20457;-50
2021/01/01 03:27:38;;;;;;;0.20;0.10;;;;;;;3.31;100.00;99145.53;4973340;28;20499;-49
2021/01/01 03:30:06;;;;;;;0.23;0.10;;;;;;;3.32;100.00;99147.28;4972426;28;20492;-50
2021/01/01 03:32:33;;;;;;;0.20;0.10;;;;;;;3.31;100.00;99153.41;4987830;28;20970;-50
2021/01/01 03:34:59;;;;;;;0.20;0.10;;;;;;;3.25;100.00;99160.50;4992202;28;20792;-50
2021/01/01 03:37:30;;;;;;;0.20;0.10;;;;;;;3.27;100.00;99165.72;4995107;28;20446;-50
2021/01/01 03:39:56;;;;;;;0.20;0.10;;;;;;;3.25;100.00;99164.88;4993565;28;20481;-50
2021/01/01 03:42:22;;;;;;;0.30;0.20;;;;;;;3.30;100.00;99154.31;4993635;28;20468;-50
2021/01/01 03:44:48;;;;;;;0.30;0.20;;;;;;;3.35;100.00;99162.97;4993478;28;20985;-50
2021/01/01 03:47:14;;;;;;;0.20;0.10;;;;;;;3.39;100.00;99168.13;4992047;28;20457;-50
2021/01/01 03:49:40;;;;;;;0.20;0.10;;;;;;;3.43;100.00;99168.97;4993987;28;20474;-50
2021/01/01 03:52:06;;;;;;;0.20;0.10;;;;;;;3.40;100.00;99158.50;4990355;28;20470;-50
2021/01/01 03:54:33;;;;;;;0.20;0.10;;;;;;;3.45;100.00;99161.91;4991270;28;20553;-50
2021/01/01 03:56:59;;;;;;;0.20;0.10;;;;;;;3.41;100.00;99161.09;4993667;28;20453;-50
2021/01/01 03:59:25;;;;;;;0.20;0.10;;;;;;;3.47;100.00;99157.50;4991493;28;20567;-50
2021/01/01 04:01:51;;;;;;;0.20;0.10;;;;;;;3.55;100.00;99164.31;4995103;28;20458;-50
2021/01/01 04:04:17;;;;;;;0.20;0.10;;;;;;;3.44;100.00;99162.81;4994488;28;20457;-50
2021/01/01 04:06:43;;;;;;;0.20;0.10;;;;;;;3.41;100.00;99170.72;4994506;28;20457;-50
2021/01/01 04:09:09;;;;;;;0.20;0.10;;;;;;;3.39;100.00;99170.75;4991900;28;20861;-49
2021/01/01 04:11:37;;;;;;;0.20;0.10;;;;;;;3.39;100.00;99170.75;4990500;28;20978;-50
2021/01/01 04:14:04;;;;;;;0.20;0.10;;;;;;;3.42;100.00;99169.84;4990247;28;20470;-50
2021/01/01 04:16:31;;;;;;;0.20;0.10;;;;;;;3.42;100.00;99168.06;4994035;28;20449;-50
2021/01/01 04:18:58;;;;;;;0.20;0.10;;;;;;;3.46;100.00;99166.28;4994389;28;20473;-50
2021/01/01 04:21:25;;;;;;;0.20;0.10;;;;;;;3.45;100.00;99168.03;4981945;28;20457;-51
2021/01/01 04:23:51;;;;;;;0.20;0.10;;;;;;;3.50;100.00;99168.81;5014390;28;20548;-50
2021/01/01 04:26:17;;;;;;;0.20;0.10;;;;;;;3.41;100.00;99171.59;5012110;28;20442;-50
2021/01/01 04:28:43;;;;;;;0.20;0.10;;;;;;;3.36;100.00;99170.81;5014437;28;20489;-50
2021/01/01 04:31:09;;;;;;;0.20;0.10;;;;;;;3.40;100.00;99172.50;4993232;28;20453;-49
2021/01/01 04:33:35;;;;;;;0.20;0.10;;;;;;;3.43;100.00;99161.94;4994374;28;20453;-50
2021/01/01 04:36:02;;;;;;;0.20;0.10;;;;;;;3.48;100.00;99177.63;4994307;28;20461;-50
2021/01/01 04:38:28;;;;;;;0.20;0.10;;;;;;;3.44;100.00;99168.06;4991933;28;20472;-50
2021/01/01 04:40:55;;;;;;;0.20;0.10;;;;;;;3.43;100.00;99177.72;4994377;28;20438;-50
2021/01/01 04:43:21;;;;;;;0.20;0.10;;;;;;;3.41;100.00;99178.59;4994433;28;20457;-50
2021/01/01 04:45:47;;;;;;;0.20;0.10;;;;;;;3.47;100.00;99182.00;4988740;28;20461;-50
2021/01/01 04:48:13;;;;;;;0.20;0.10;;;;;;;3.48;100.00;99182.88;4993825;28;20496;-51
2021/01/01 04:50:39;;;;;;;0.40;0.40;;;;;;;3.55;100.00;99176.59;4993761;28;20449;-50
2021/01/01 04:53:08;;;;;;;0.20;0.10;;;;;;;3.58;100.00;99181.81;4991964;28;20469;-50
2021/01/01 04:55:36;;;;;;;0.20;0.10;;;;;;;3.53;100.00;99188.91;4993966;28;20457;-49
2021/01/01 04:58:02;;;;;;;0.20;0.10;;;;;;;3.52;100.00;99187.16;4993859;28;20446;-50
2021/01/01 05:00:29;;;;;;;0.20;0.10;;;;;;;3.51;100.00;99188.94;4988727;28;20485;-50
2021/01/01 05:02:55;;;;;;;0.20;0.10;;;;;;;3.63;100.00;99194.84;4993656;28;20954;-50
2021/01/01 05:05:27;;;;;;;0.20;0.10;;;;;;;3.60;100.00;99185.28;4991445;28;20465;-50
2021/01/01 05:07:53;;;;;;;0.20;0.10;;;;;;;3.67;100.00;99191.28;4969210;28;20496;-50
2021/01/01 05:10:20;;;;;;;0.20;0.10;;;;;;;3.61;100.00;99196.66;4993820;28;20875;-50
2021/01/01 05:12:48;;;;;;;0.20;0.10;;;;;;;3.53;100.00;99189.75;4993518;28;20939;-50
2021/01/01 05:15:32;;;;;;;0.20;0.10;;;;;;;3.43;100.00;99188.22;4991681;28;20465;-50
2021/01/01 05:17:58;;;;;;;0.20;0.10;;;;;;;3.52;100.00;99201.16;4993912;28;20445;-50
2021/01/01 05:20:27;;;;;;;0.20;0.20;;;;;;;3.54;100.00;99198.50;4984073;28;20486;-49
2021/01/01 05:22:58;;;;;;;0.20;0.10;;;;;;;3.55;100.00;99192.34;4984308;28;20541;-49
2021/01/01 05:25:26;;;;;;;0.50;0.50;;;;;;;3.61;100.00;99200.16;4993386;28;20465;-50
2021/01/01 05:27:59;;;;;;;0.20;0.10;;;;;;;3.58;100.00;99202.84;4987482;28;20497;-49
2021/01/01 05:30:31;;;;;;;0.30;0.17;;;;;;;3.59;100.00;99204.56;4982402;28;20535;-50
2021/01/01 05:32:59;;;;;;;0.20;0.10;;;;;;;3.58;100.00;99210.72;4991564;28;20449;-50
2021/01/01 05:35:30;;;;;;;0.20;0.10;;;;;;;3.58;100.00;99208.09;4967624;28;20460;-50
2021/01/01 05:38:13;;;;;;;0.20;0.10;;;;;;;3.69;100.00;99213.13;4993025;28;20452;-50
2021/01/01 05:40:40;;;;;;;0.20;0.10;;;;;;;3.64;100.00;99212.34;4993199;28;20441;-49
2021/01/01 05:43:21;;;;;;;0.20;0.10;;;;;;;3.78;100.00;99211.22;4991917;28;20519;-50
2021/01/01 05:45:47;;;;;;;0.20;0.10;;;;;;;3.65;100.00;99219.34;4976076;28;20824;-50
2021/01/01 05:48:16;;;;;;;0.20;0.20;;;;;;;3.75;100.00;99221.78;4991174;28;20485;-50
2021/01/01 05:50:45;;;;;;;0.20;0.10;;;;;;;3.67;100.00;99223.66;4990558;28;20453;-50
2021/01/01 05:53:16;;;;;;;0.20;0.20;;;;;;;3.69;100.00;99224.50;4992002;28;20458;-51
2021/01/01 05:55:44;;;;;;;0.20;0.13;;;;;;;3.75;100.00;99229.66;4993128;28;20456;-50
2021/01/01 05:58:25;;;;;;;0.23;0.13;;;;;;;3.69;100.00;99235.00;4992752;28;20947;-50
2021/01/01 06:00:56;;;;;;;0.20;0.10;;;;;;;3.68;100.00;99232.41;4984753;28;20465;-50
2021/01/01 06:03:34;;;;;;;0.20;0.10;;;;;;;3.72;100.00;99237.63;4992914;28;20454;-50
2021/01/01 06:06:06;;;;;;;0.30;0.30;;;;;;;3.76;100.00;99236.66;4993010;28;20445;-50
2021/01/01 06:08:33;;;;;;;0.20;0.10;;;;;;;3.74;100.00;99241.06;4992959;28;20588;-50
2021/01/01 06:11:00;;;;;;;0.30;0.30;;;;;;;3.77;100.00;99243.63;4992954;28;20454;-50
2021/01/01 06:13:36;;;;;;;0.20;0.10;;;;;;;3.76;100.00;99239.28;4996249;28;20453;-50
2021/01/01 06:16:05;;;;;;;0.77;0.77;;;;;;;3.82;100.00;99252.28;4990444;28;20468;-50
2021/01/01 06:18:33;;;;;;;0.20;0.10;;;;;;;3.79;100.00;99255.00;4981887;28;20497;-50
2021/01/01 06:21:04;;;;;;;0.20;0.10;;;;;;;3.72;100.00;99250.75;4984672;28;20446;-50
2021/01/01 06:23:40;;;;;;;0.20;0.10;;;;;;;3.69;100.00;99260.44;4990935;28;20516;-50
2021/01/01 06:26:08;;;;;;;0.20;0.10;;;;;;;3.70;100.00;99264.78;4993538;28;20450;-49
2021/01/01 06:28:43;;;;;;;0.20;0.10;;;;;;;3.65;100.00;99264.88;4989267;28;20493;-50
2021/01/01 06:31:11;;;;;;;0.20;0.10;;;;;;;3.70;100.00;99272.66;4994129;28;20834;-50
2021/01/01 06:33:42;;;;;;;0.20;0.10;;;;;;;3.66;100.00;99274.50;4996061;28;20453;-51
2021/01/01 06:36:09;;;;;;;0.20;0.10;;;;;;;3.59;100.00;99279.91;4996748;28;20524;-52
2021/01/01 06:38:41;;;;;;;0.20;0.10;;;;;;;3.63;100.00;99279.81;4991203;28;20489;-53
2021/01/01 06:41:13;;;;;;;0.20;0.10;;;;;;;3.56;100.00;99283.41;4995811;28;20827;-53
2021/01/01 06:43:54;;;;;;;0.20;0.20;;;;;;;3.54;100.00;99299.19;4993943;28;20827;-53
2021/01/01 06:46:40;;;;;;;0.20;0.10;;;;;;;3.54;100.00;99290.47;4996075;28;20453;-54
2021/01/01 06:49:08;;;;;;;0.20;0.10;;;;;;;3.58;100.00;99299.19;4994060;28;20496;-54
2021/01/01 06:51:36;;;;;;;0.20;0.10;;;;;;;3.55;100.00;99300.06;4991907;28;20469;-53
2021/01/01 06:54:15;;;;;;;0.20;0.10;;;;;;;3.52;100.00;99303.63;4994825;28;20469;-53
2021/01/01 06:56:43;;;;;;;0.20;0.10;;;;;;;3.53;100.00;99305.34;4993932;28;20496;-53
2021/01/01 06:59:15;;;;;;;0.30;0.10;;;;;;;3.46;100.00;99306.34;4992775;28;20864;-52
2021/01/01 07:01:43;;;;;;;0.20;0.10;;;;;;;3.55;100.00;99310.56;4988967;28;20453;-53
2021/01/01 07:04:10;;;;;;;0.20;0.10;;;;;;;3.52;100.00;99311.50;4989223;28;20457;-53
2021/01/01 07:06:38;;;;;;;0.20;0.20;;;;;;;3.57;100.00;99316.69;4995642;28;20450;-53
2021/01/01 07:09:06;;;;;;;0.20;0.10;;;;;;;3.46;100.00;99313.38;4994910;28;20994;-53
2021/01/01 07:11:34;;;;;;;0.20;0.10;;;;;;;3.42;100.00;99324.78;4993623;28;20869;-53
2021/01/01 07:14:12;;;;;;;0.30;0.20;;;;;;;3.42;100.00;99327.41;4996794;28;20461;-53
2021/01/01 07:16:43;;;;;;;0.20;0.10;;;;;;;3.28;100.00;99314.50;4996345;28;20519;-53
2021/01/01 07:19:10;;;;;;;0.20;0.10;;;;;;;3.36;100.00;99323.13;4983201;28;20508;-51
2021/01/01 07:21:38;;;;;;;0.20;0.10;;;;;;;3.32;100.00;99326.72;4978924;28;20450;-51
2021/01/01 07:24:05;;;;;;;0.20;0.10;;;;;;;3.32;100.00;99331.09;4977418;28;21143;-52
2021/01/01 07:26:32;;;;;;;0.20;0.10;;;;;;;3.22;100.00;99336.47;4983188;28;20888;-51
2021/01/01 07:29:00;;;;;;;0.20;0.10;;;;;;;3.10;100.00;99335.78;4988078;28;20849;-52
2021/01/01 07:31:27;;;;;;;0.20;0.10;;;;;;;3.16;100.00;99340.97;4985816;28;20458;-53
2021/01/01 07:33:57;;;;;;;0.20;0.10;;;;;;;3.14;100.00;99343.59;4988632;28;20521;-53
2021/01/01 07:36:23;;;;;;;0.20;0.10;;;;;;;3.17;100.00;99343.56;4983272;28;20978;-52
2021/01/01 07:38:49;;;;;;;0.20;0.10;;;;;;;3.14;100.00;99345.34;4988857;28;21007;-55
2021/01/01 07:41:19;;;;;;;0.20;0.10;;;;;;;3.16;100.00;99356.72;4974566;28;20474;-51
2021/01/01 07:43:49;;;;;;;0.20;0.10;;;;;;;3.17;100.00;99348.81;4968730;28;20473;-51
2021/01/01 07:46:16;;;;;;;1.70;1.47;;;;;;;3.13;100.00;99360.22;4973645;28;20459;-51
2021/01/01 07:48:42;;;;;;;0.20;0.20;;;;;;;3.14;100.00;99354.09;4977919;28;20498;-51
2021/01/01 07:51:10;;;;;;;0.20;0.10;;;;;;;3.11;100.00;99362.00;4991799;28;20458;-51
2021/01/01 07:53:37;;;;;;;0.20;0.10;;;;;;;3.09;100.00;99365.53;4990785;28;20947;-51
2021/01/01 07:56:08;;;;;;;0.20;0.10;;;;;;;3.09;100.00;99366.41;4975271;28;20458;-51
2021/01/01 07:58:36;;;;;;;0.20;0.10;;;;;;;3.11;100.00;99369.00;4982030;28;20486;-53
2021/01/01 08:01:10;;;;;;;0.20;0.10;;;;;;;3.13;100.00;99375.09;4980220;28;20471;-51
2021/01/01 08:03:39;;;;;;;0.20;0.10;;;;;;;3.20;100.00;99377.66;4969127;28;21023;-51
2021/01/01 08:06:09;;;;;;;0.20;0.10;;;;;;;3.23;100.00;99384.59;4973757;28;20473;-51
2021/01/01 08:08:37;;;;;;;0.20;0.10;;;;;;;3.19;100.00;99385.53;4959178;28;20501;-52
2021/01/01 08:11:06;;;;;;;0.20;0.20;;;;;;;3.22;100.00;99382.88;4986140;28;20935;-50
2021/01/01 08:13:33;;;;;;;0.20;0.10;;;;;;;3.27;100.00;99391.53;4980546;28;20473;-51
2021/01/01 08:16:14;;;;;;;0.20;0.10;;;;;;;3.35;100.00;99391.44;4988210;28;20442;-51
2021/01/01 08:18:41;;;;;;;0.20;0.10;;;;;;;3.31;100.00;99395.03;4983341;28;21008;-50
2021/01/01 08:21:08;;;;;;;0.20;0.10;;;;;;;3.29;100.00;99395.03;4968968;28;20540;-51
2021/01/01 08:23:55;;;;;;;0.20;0.10;;;;;;;3.20;100.00;99409.16;4987416;28;20461;-50
2021/01/01 08:26:22;;;;;;;0.20;0.10;;;;;;;3.33;100.00;99401.97;4974731;28;20473;-51
2021/01/01 08:28:51;;;;;;;0.20;0.10;;;;;;;3.34;100.00;99408.09;4991075;28;20552;-51
2021/01/01 08:31:21;;;;;;;0.20;0.10;;;;;;;3.42;100.00;99407.09;4979951;28;20491;-51
2021/01/01 08:33:52;;;;;;;0.20;0.10;;;;;;;3.44;100.00;99409.72;4971575;28;20469;-51
2021/01/01 08:36:19;;;;;;;0.20;0.10;;;;;;;3.41;100.00;99409.75;4986663;28;20445;-51
2021/01/01 08:38:47;;;;;;;0.20;0.20;;;;;;;3.40;100.00;99408.88;4991410;28;20478;-50
2021/01/01 08:41:18;;;;;;;0.20;0.10;;;;;;;3.49;100.00;99416.63;4970555;28;20540;-51
2021/01/01 08:43:45;;;;;;;0.20;0.10;;;;;;;3.50;100.00;99414.88;4970386;28;20466;-50
2021/01/01 08:46:15;;;;;;;0.20;0.10;;;;;;;3.54;100.00;99413.94;4974134;28;20484;-51
2021/01/01 08:48:42;;;;;;;0.20;0.10;;;;;;;3.56;100.00;99420.03;4990305;28;20501;-51
2021/01/01 08:51:08;;;;;;;0.20;0.20;;;;;;;3.56;100.00;99418.28;4974631;28;20464;-51
2021/01/01 08:53:38;;;;;;;0.20;0.10;;;;;;;3.66;100.00;99419.00;4964112;28;20465;-52
2021/01/01 08:56:05;;;;;;;0.20;0.10;;;;;;;3.67;100.00;99428.63;4971449;28;20473;-51
2021/01/01 08:58:32;;;;;;;0.20;0.10;;;;;;;3.69;100.00;99432.09;4963347;28;21043;-53
2021/01/01 09:01:18;;;;;;;0.20;0.10;;;;;;;3.65;100.00;99432.19;4981632;28;21044;-51
2021/01/01 09:03:45;;;;;;;0.20;0.10;;;;;;;3.67;100.00;99428.63;4985572;28;20466;-50
2021/01/01 09:06:18;;;;;;;0.30;0.30;;;;;;;3.80;100.00;99434.56;4983893;28;20524;-50
2021/01/01 09:08:44;;;;;;;0.20;0.10;;;;;;;3.82;100.00;99436.28;4973015;28;20598;-53
2021/01/01 09:11:23;;;;;;;0.20;0.10;;;;;;;3.78;100.00;99441.63;4983434;28;20453;-51
2021/01/01 09:14:04;;;;;;;0.20;0.10;;;;;;;3.75;100.00;99431.16;4985273;28;20465;-52
2021/01/01 09:16:44;;;;;;;0.20;0.10;;;;;;;3.72;100.00;99442.59;4989989;28;20533;-51
2021/01/01 09:19:11;;;;;;;0.20;0.10;;;;;;;3.82;100.00;99436.28;4983554;28;20478;-51
2021/01/01 09:21:38;;;;;;;0.27;0.20;;;;;;;3.81;100.00;99442.44;4970164;28;20467;-54
2021/01/01 09:24:05;;;;;;;0.30;0.23;;;;;;;3.79;100.00;99445.97;4982415;28;20528;-51
2021/01/01 09:26:31;;;;;;;0.20;0.10;;;;;;;3.88;100.00;99447.59;4969868;28;20463;-51
2021/01/01 09:29:05;;;;;;;0.20;0.10;;;;;;;3.89;100.00;99446.72;4965831;28;21021;-51
2021/01/01 09:31:32;;;;;;;0.20;0.20;;;;;;;3.94;100.00;99451.00;4959368;28;20470;-52
2021/01/01 09:34:07;;;;;;;0.20;0.10;;;;;;;3.90;100.00;99457.22;4965299;28;20458;-51
2021/01/01 09:36:38;;;;;;;0.20;0.20;;;;;;;3.99;100.00;99461.47;4968287;28;20470;-51
2021/01/01 09:39:06;;;;;;;0.20;0.20;;;;;;;4.05;100.00;99464.84;4972406;28;20494;-51
2021/01/01 09:41:36;;;;;;;0.20;0.10;;;;;;;3.98;100.00;99465.00;4970714;28;20477;-51
2021/01/01 09:44:03;;;;;;;0.30;0.20;;;;;;;4.00;100.00;99466.69;4972838;28;20922;-51
2021/01/01 09:46:29;;;;;;;0.20;0.20;;;;;;;4.13;100.00;99470.00;4969949;28;21035;-50
2021/01/01 09:48:56;;;;;;;0.83;0.83;;;;;;;4.09;100.00;99468.28;4982547;28;20501;-50
2021/01/01 09:51:23;;;;;;;1.60;1.50;;;;;;;4.15;100.00;99476.09;4977687;28;20513;-50
2021/01/01 09:53:49;;;;;;;0.20;0.10;;;;;;;4.09;100.00;99470.94;4978647;28;20458;-50
2021/01/01 09:56:15;;;;;;;0.20;0.20;;;;;;;4.04;100.00;99478.03;4978318;28;20450;-49
2021/01/01 09:58:41;;;;;;;0.20;0.10;;;;;;;3.83;100.00;99479.19;4978210;28;20470;-52
2021/01/01 10:01:07;;;;;;;0.20;0.10;;;;;;;3.74;100.00;99484.59;4981179;28;20462;-50
2021/01/01 10:03:33;;;;;;;1.67;1.60;;;;;;;3.72;100.00;99476.75;4987714;28;20878;-50
2021/01/01 10:06:00;;;;;;;0.20;0.10;;;;;;;3.89;100.00;99475.63;4978716;28;20461;-52
2021/01/01 10:08:26;;;;;;;1.20;0.83;;;;;;;4.00;100.00;99478.97;4975184;28;21025;-54
2021/01/01 10:10:52;;;;;;;0.20;0.13;;;;;;;3.86;100.00;99480.06;4975594;28;20464;-51
2021/01/01 10:13:18;;;;;;;0.20;0.10;;;;;;;3.73;100.00;99483.75;4975640;28;20494;-51
2021/01/01 10:15:45;;;;;;;0.20;0.10;;;;;;;3.95;100.00;99479.03;4974493;28;20471;-51
2021/01/01 10:18:11;;;;;;;0.20;0.10;;;;;;;3.82;100.00;99480.97;4971744;28;20497;-51
2021/01/01 10:20:37;;;;;;;0.20;0.10;;;;;;;3.68;100.00;99482.91;4973326;28;20882;-54
2021/01/01 10:23:04;;;;;;;0.20;0.10;;;;;;;3.91;100.00;99481.72;4973627;28;20963;-51
2021/01/01 10:25:30;;;;;;;0.20;0.20;;;;;;;4.08;100.00;99482.34;4976481;28;20458;-52
2021/01/01 10:27:56;;;;;;;0.20;0.10;;;;;;;4.05;100.00;99485.03;4972375;28;20466;-51
2021/01/01 10:30:23;;;;;;;0.20;0.10;;;;;;;4.16;100.00;99488.34;4967383;28;20483;-53
2021/01/01 10:32:49;;;;;;;0.20;0.10;;;;;;;4.09;100.00;99495.47;4972208;28;20469;-51
2021/01/01 10:35:15;;;;;;;0.30;0.10;;;;;;;4.19;100.00;99495.31;4979831;28;20955;-52
2021/01/01 10:37:41;;;;;;;0.20;0.10;;;;;;;4.29;100.00;99489.91;4981148;28;20471;-52
2021/01/01 10:40:07;;;;;;;0.20;0.10;;;;;;;4.67;100.00;99498.94;4973410;28;20502;-53
2021/01/01 10:42:34;;;;;;;0.20;0.10;;;;;;;4.62;100.00;99492.84;4972121;28;20469;-53
2021/01/01 10:45:00;;;;;;;0.20;0.10;;;;;;;4.85;100.00;99493.31;4974411;28;20496;-53
2021/01/01 10:47:26;;;;;;;0.20;0.10;;;;;;;5.04;100.00;99499.97;4966274;28;20526;-53
2021/01/01 10:49:53;;;;;;;0.67;0.67;;;;;;;4.99;100.00;99495.69;4971498;28;20494;-54
2021/01/01 10:52:19;;;;;;;0.20;0.10;;;;;;;4.97;100.00;99501.00;4970406;28;20461;-53
2021/01/01 10:54:46;;;;;;;0.20;0.10;;;;;;;4.76;100.00;99496.09;4969226;28;20477;-56
2021/01/01 10:57:12;;;;;;;1.13;1.13;;;;;;;4.99;100.00;99491.28;4976604;28;20455;-53
2021/01/01 10:59:39;;;;;;;0.20;0.20;;;;;;;4.98;100.00;99492.19;4968539;28;20509;-53
2021/01/01 11:02:05;;;;;;;0.20;0.13;;;;;;;5.06;100.00;99495.53;4973349;28;20458;-52
2021/01/01 11:04:32;;;;;;;0.20;0.10;;;;;;;5.02;100.00;99491.22;4970190;28;20475;-53
2021/01/01 11:06:58;;;;;;;0.20;0.10;;;;;;;5.14;100.00;99490.13;4966205;28;20467;-54
2021/01/01 11:09:24;;;;;;;0.20;0.10;;;;;;;5.13;100.00;99490.16;4970977;28;20501;-54
2021/01/01 11:11:54;;;;;;;0.20;0.10;;;;;;;5.09;100.00;99496.41;4971909;28;20478;-53
2021/01/01 12:23:32;;;;;;;0.20;0.10;;;;;;;4.56;100.00;99475.41;4971047;28;20587;-52
2021/01/01 12:26:01;;;;;;;0.20;0.13;;;;;;;4.70;100.00;99469.91;4966998;28;20476;-52
2021/01/01 12:28:27;;;;;;;0.30;0.30;;;;;;;4.74;100.00;99482.09;4967496;28;20487;-52
2021/01/01 12:30:55;;;;;;;0.20;0.10;;;;;;;4.73;100.00;99475.97;4973450;28;20470;-52
2021/01/01 12:33:21;;;;;;;0.20;0.10;;;;;;;4.86;100.00;99476.63;4965508;28;20477;-55
2021/01/01 12:35:48;;;;;;;0.20;0.20;;;;;;;4.85;100.00;99474.03;4964531;28;20473;-53
2021/01/01 12:38:14;;;;;;;0.20;0.10;;;;;;;4.95;100.00;99486.13;4971497;28;20467;-53
2021/01/01 12:40:40;;;;;;;0.20;0.20;;;;;;;4.87;100.00;99486.25;4971681;28;20885;-53
2021/01/01 12:43:07;;;;;;;0.20;0.10;;;;;;;4.83;100.00;99483.72;4965225;28;20470;-53
2021/01/01 12:45:33;;;;;;;0.20;0.10;;;;;;;4.92;100.00;99483.53;4967765;28;20475;-53
2021/01/01 12:48:03;;;;;;;0.20;0.10;;;;;;;4.91;100.00;99489.69;4971813;28;20470;-53